Etusivu
METAR-TAF:

METAR-TAF

Lentoasemat :

Phillip Goldston

Belize City, Belize

Leveyspiiri: 17-32N, Pituuspiiri: 088-18W, korkeus merenpinnasta: 5 m

Tämänhetkinen sää

Tämä raportti tehtiin 17 minuuttia sitten, kello 11.00 UTC
Tuuli 3 kn idästä/kaakosta
Lämpötila 25°C
Kosteus 94%
Ilmanpaine 1014 hPa
Näkyvyys 10 km tai enemmän
Hajanaisia pilviä 1800 ft:n korkeudessa

METAR: MZBZ 071100Z 11003KT 9999 SCT018 25/24 A2995 Q1014 NOSIG

Aika: 05:17 (11:17 UTC)

Sääennuste

Tämä raportti tehtiin 8 tuntia ja 17 minuuttia sitten, kello 03.00 UTC
Ennuste voimassa 07. päivästä klo 06 UTC - 08. päivään klo 06 UTC
Tuuli 10 kn idästä
Näkyvyys 10 km tai enemmän
Hajanaisia pilviä 2200 ft:n korkeudessa

TAF: MZBZ 070300Z 0706/0806 10010KT 9999 SCT022

Säähavainnot ja -ennusteet yli 4000 lentoasemalta (METAR- ja TAF-raportit).

Käytössä olevat sääasemat on merkitty karttaan keltaisilla ja punaisilla pisteillä.

Aseta hiiri pisteen päälle nähdäksesi sääaseman nimen.

Klikkaa sitten nähdäksesi säähavainnot ja -ennusteet.

Kartan vaihtaminen: klikkaa mustalla rastilla varustettuja vihreitä pisteitä, niin voit zoomata sisään; viivalla varustettua vihreää pistettä, niin voit zoomata ulos tai vihreitä nuolia, niin pääset viereisille kartoille.


METAR-TAF: